83WI weather

Jones Airport
Dorchester, Wisconsin, United States

Public forecast

Using degrees Fahrenheit for public forecast. Weather courtesy of forecast.io.

Closest aviation weather report (METAR) to Jones Airport

Closest report is Taylor County Airport, 8.0 nm (14.9 km) NNE. Retrieved 2020/08/07 18:35 UTC (0 seconds ago):

KMDZ 071835Z AUTO 17009G14KT 10SM SCT036 OVC095 23/16 A3010 RMK AO2 T02290156

Closest aviation forecast (TAF) to Jones Airport

Forecast is more than 6 hours old.

Closest forecast is Wausau Downtown Airport, 30.7 nm (56.8 km) E. Retrieved 2020/08/07 12:22 UTC (6 hours ago):

TAF KAUW 071120Z 0712/0812 15003KT P6SM SKC FM071500 17006KT P6SM SCT035 FM071800 19010G16KT P6SM SCT045 BKN080 FM072300 17008KT P6SM SCT050 FM080700 19007KT P6SM BKN025 FM080900 19007KT P6SM VCTS BKN028CB